createdAt,value
2018-01-17T00:02:04.910Z,5.40
2018-01-17T00:04:32.788Z,5.50
2018-01-17T00:07:00.642Z,5.40
2018-01-17T00:09:28.534Z,5.40
2018-01-17T00:11:56.376Z,5.30
2018-01-17T00:14:24.245Z,5.40
2018-01-17T00:16:52.111Z,5.30
2018-01-17T00:19:19.979Z,5.30
2018-01-17T00:21:47.845Z,5.30
2018-01-17T00:24:15.712Z,5.20
2018-01-17T00:26:43.580Z,5.20
2018-01-17T00:29:11.447Z,5.10
2018-01-17T00:31:39.314Z,5.10
2018-01-17T00:34:07.182Z,5.10
2018-01-17T00:36:34.982Z,5.10
2018-01-17T00:39:03.634Z,5.10
2018-01-17T00:41:31.501Z,5.10
2018-01-17T00:43:59.368Z,5.10
2018-01-17T00:46:27.235Z,5.20
2018-01-17T00:48:55.103Z,5.20
2018-01-17T00:51:23.073Z,5.30
2018-01-17T00:53:50.940Z,5.30
2018-01-17T00:56:18.808Z,5.30
2018-01-17T00:58:46.678Z,5.30
2018-01-17T01:01:14.638Z,5.30
2018-01-17T01:03:42.512Z,5.20
2018-01-17T01:06:10.314Z,5.20
2018-01-17T01:08:38.860Z,5.10
2018-01-17T01:11:06.727Z,5.10
2018-01-17T01:13:34.595Z,5.10
2018-01-17T01:16:02.462Z,5.10
2018-01-17T01:18:30.330Z,5.10
2018-01-17T01:20:58.197Z,5.00
2018-01-17T01:23:26.068Z,5.00
2018-01-17T01:25:53.936Z,5.00
2018-01-17T01:28:21.799Z,4.90
2018-01-17T01:30:49.666Z,5.00
2018-01-17T01:33:17.461Z,5.00
2018-01-17T01:35:45.299Z,5.00
2018-01-17T01:38:13.166Z,5.00
2018-01-17T01:40:41.033Z,5.00
2018-01-17T01:43:08.901Z,5.00
2018-01-17T01:45:36.770Z,4.90
2018-01-17T01:48:04.635Z,4.80
2018-01-17T01:50:32.503Z,4.80
2018-01-17T01:53:00.370Z,4.70
2018-01-17T01:55:28.237Z,4.70
2018-01-17T01:57:56.104Z,4.70
2018-01-17T02:00:23.972Z,4.70
2018-01-17T02:02:51.839Z,4.70
2018-01-17T02:05:19.707Z,4.70
2018-01-17T02:07:47.574Z,4.70
2018-01-17T02:10:15.441Z,4.70
2018-01-17T02:12:43.308Z,4.60
2018-01-17T02:15:11.175Z,4.60
2018-01-17T02:17:39.043Z,4.60
2018-01-17T02:20:06.910Z,4.60
2018-01-17T02:22:34.778Z,4.60
2018-01-17T02:25:02.645Z,4.50
2018-01-17T02:27:30.512Z,4.50
2018-01-17T02:29:58.380Z,4.60
2018-01-17T02:32:26.247Z,4.50
2018-01-17T02:34:54.117Z,4.50
2018-01-17T02:37:21.984Z,4.50
2018-01-17T02:40:01.832Z,4.40
2018-01-17T02:42:29.698Z,4.50
2018-01-17T02:44:57.567Z,4.50
2018-01-17T02:47:25.433Z,4.50
2018-01-17T02:49:53.609Z,4.50
2018-01-17T02:52:21.474Z,4.40
2018-01-17T02:54:50.262Z,4.40
2018-01-17T02:57:18.140Z,4.40
2018-01-17T02:59:46.000Z,4.40
2018-01-17T03:02:13.866Z,4.40
2018-01-17T03:04:41.731Z,4.40
2018-01-17T03:07:09.601Z,4.40
2018-01-17T03:09:37.467Z,4.40
2018-01-17T03:12:05.335Z,4.40
2018-01-17T03:14:33.201Z,4.40
2018-01-17T03:17:01.068Z,4.30
2018-01-17T03:19:28.935Z,4.30
2018-01-17T03:21:56.803Z,4.40
2018-01-17T03:24:24.670Z,4.40
2018-01-17T03:26:52.538Z,4.40
2018-01-17T03:29:20.405Z,4.40
2018-01-17T03:31:48.272Z,4.40
2018-01-17T03:34:16.143Z,4.30
2018-01-17T03:36:44.006Z,4.30
2018-01-17T03:39:11.874Z,4.30
2018-01-17T03:41:39.742Z,4.30
2018-01-17T03:44:07.608Z,4.30
2018-01-17T03:46:35.475Z,4.30
2018-01-17T03:49:03.343Z,4.30
2018-01-17T03:51:31.212Z,4.30
2018-01-17T03:53:59.078Z,4.30
2018-01-17T03:56:27.047Z,4.20
2018-01-17T03:58:54.914Z,4.20
2018-01-17T04:01:22.781Z,4.20
2018-01-17T04:03:50.649Z,4.20
2018-01-17T04:06:18.415Z,4.20
2018-01-17T04:08:46.282Z,4.30
2018-01-17T04:11:14.150Z,4.30
2018-01-17T04:13:42.016Z,4.20
2018-01-17T04:16:09.884Z,4.20
2018-01-17T04:18:37.750Z,4.20
2018-01-17T04:21:05.619Z,4.20
2018-01-17T04:23:33.485Z,4.20
2018-01-17T04:26:01.353Z,4.20
2018-01-17T04:28:29.220Z,4.20
2018-01-17T04:30:57.089Z,4.20
2018-01-17T04:33:24.955Z,4.20
2018-01-17T04:35:52.822Z,4.20
2018-01-17T04:38:20.689Z,4.20
2018-01-17T04:40:48.791Z,4.10
2018-01-17T04:43:16.631Z,4.00
2018-01-17T04:45:44.496Z,4.10
2018-01-17T04:48:12.363Z,4.10
2018-01-17T04:50:40.231Z,4.10
2018-01-17T04:53:08.098Z,4.10
2018-01-17T04:55:35.965Z,4.10
2018-01-17T04:58:03.832Z,4.10
2018-01-17T05:00:31.700Z,4.00
2018-01-17T05:03:01.770Z,4.00
2018-01-17T05:05:31.811Z,4.00
2018-01-17T05:08:01.712Z,4.10
2018-01-17T05:10:31.926Z,4.10
2018-01-17T05:13:02.147Z,4.10
2018-01-17T05:15:32.832Z,4.10
2018-01-17T05:18:03.844Z,4.10
2018-01-17T05:20:31.740Z,4.10
2018-01-17T05:22:59.812Z,4.10
2018-01-17T05:25:27.679Z,4.10
2018-01-17T05:27:55.546Z,4.20
2018-01-17T05:30:23.414Z,4.20
2018-01-17T05:32:51.281Z,4.20
2018-01-17T05:35:19.077Z,4.20
2018-01-17T05:37:46.914Z,4.20
2018-01-17T05:40:14.780Z,4.20
2018-01-17T05:42:42.545Z,4.20
2018-01-17T05:45:10.412Z,4.30
2018-01-17T05:47:38.311Z,4.30
2018-01-17T05:50:06.147Z,4.40
2018-01-17T05:52:34.024Z,4.40
2018-01-17T05:55:01.882Z,4.40
2018-01-17T05:57:29.751Z,4.40
2018-01-17T05:59:57.619Z,4.40
2018-01-17T06:02:25.484Z,4.40
2018-01-17T06:04:53.351Z,4.50
2018-01-17T06:07:21.218Z,4.50
2018-01-17T06:09:49.085Z,4.30
2018-01-17T06:12:16.953Z,4.20
2018-01-17T06:14:44.820Z,4.10
2018-01-17T06:17:12.689Z,4.00
2018-01-17T06:19:40.555Z,3.90
2018-01-17T06:22:08.422Z,3.80
2018-01-17T06:24:36.291Z,3.80
2018-01-17T06:27:04.361Z,3.70
2018-01-17T06:29:32.229Z,3.70
2018-01-17T06:32:00.097Z,3.60
2018-01-17T06:34:27.964Z,3.50
2018-01-17T06:36:55.831Z,3.30
2018-01-17T06:39:23.698Z,3.10
2018-01-17T06:41:51.566Z,2.90
2018-01-17T06:44:19.432Z,2.80
2018-01-17T06:46:47.300Z,2.80
2018-01-17T06:49:15.168Z,2.70
2018-01-17T06:51:43.038Z,2.70
2018-01-17T06:54:10.904Z,2.60
2018-01-17T06:56:38.769Z,2.60
2018-01-17T06:59:06.636Z,2.60
2018-01-17T07:01:34.504Z,2.60
2018-01-17T07:04:02.377Z,2.60
2018-01-17T07:06:30.239Z,2.60
2018-01-17T07:08:58.107Z,2.60
2018-01-17T07:11:25.973Z,2.70
2018-01-17T07:13:53.841Z,2.70
2018-01-17T07:16:21.709Z,2.70
2018-01-17T07:18:49.581Z,2.70
2018-01-17T07:21:17.442Z,2.70
2018-01-17T07:23:45.310Z,2.80
2018-01-17T07:26:13.177Z,2.70
2018-01-17T07:28:41.047Z,2.70
2018-01-17T07:31:08.912Z,2.80
2018-01-17T07:33:36.779Z,2.80
2018-01-17T07:36:04.647Z,2.90
2018-01-17T07:38:32.514Z,2.90
2018-01-17T07:41:00.381Z,2.90
2018-01-17T07:43:28.248Z,2.90
2018-01-17T07:45:56.116Z,2.90
2018-01-17T07:48:23.983Z,3.00
2018-01-17T07:50:51.851Z,3.00
2018-01-17T07:53:19.727Z,3.10
2018-01-17T07:55:47.586Z,2.90
2018-01-17T07:58:15.453Z,2.80
2018-01-17T08:00:43.320Z,2.70
2018-01-17T08:03:11.188Z,2.50
2018-01-17T08:05:39.055Z,2.40
2018-01-17T08:08:06.922Z,2.30
2018-01-17T08:10:34.789Z,2.20
2018-01-17T08:13:02.657Z,2.30
2018-01-17T08:15:30.524Z,2.30
2018-01-17T08:17:58.394Z,2.40
2018-01-17T08:20:26.262Z,2.40
2018-01-17T08:22:54.128Z,2.50
2018-01-17T08:25:21.994Z,2.50
2018-01-17T08:27:49.862Z,2.60
2018-01-17T08:30:17.728Z,2.70
2018-01-17T08:32:45.595Z,2.80
2018-01-17T08:35:14.285Z,2.90
2018-01-17T08:37:42.153Z,3.10
2018-01-17T08:40:10.016Z,3.20
2018-01-17T08:42:37.884Z,3.30
2018-01-17T08:45:05.750Z,3.30
2018-01-17T08:47:33.619Z,3.40
2018-01-17T08:50:01.485Z,3.40
2018-01-17T08:52:29.356Z,3.50
2018-01-17T08:54:57.221Z,3.50
2018-01-17T08:57:25.089Z,3.50
2018-01-17T08:59:52.976Z,3.50
2018-01-17T09:02:20.822Z,3.60
2018-01-17T09:04:48.689Z,3.60
2018-01-17T09:07:16.557Z,3.60
2018-01-17T09:09:44.424Z,3.70
2018-01-17T09:12:12.291Z,4.70
2018-01-17T09:14:40.161Z,6.70
2018-01-17T09:17:08.030Z,8.70
2018-01-17T09:19:35.893Z,10.30
2018-01-17T09:22:03.760Z,11.90
2018-01-17T09:24:31.628Z,12.70
2018-01-17T09:26:59.498Z,13.30
2018-01-17T09:29:27.365Z,12.50
2018-01-17T09:31:55.230Z,11.40
2018-01-17T09:34:23.097Z,11.10
2018-01-17T09:36:50.965Z,11.20
2018-01-17T09:39:18.834Z,11.10
2018-01-17T09:41:46.700Z,10.30
2018-01-17T09:44:14.566Z,9.20
2018-01-17T09:46:42.434Z,8.80
2018-01-17T09:49:10.302Z,8.70
2018-01-17T09:51:38.169Z,8.50
2018-01-17T09:54:06.036Z,7.80
2018-01-17T09:56:33.903Z,7.30
2018-01-17T09:59:01.771Z,7.30
2018-01-17T10:01:29.639Z,7.30
2018-01-17T10:03:57.506Z,6.90
2018-01-17T10:06:25.372Z,6.40
2018-01-17T10:08:53.240Z,6.00
2018-01-17T10:11:21.110Z,5.70
2018-01-17T10:13:48.976Z,5.60
2018-01-17T10:16:16.842Z,5.50
2018-01-17T10:18:44.709Z,5.50
2018-01-17T10:21:12.578Z,5.60
2018-01-17T10:23:40.443Z,5.60
2018-01-17T10:26:08.311Z,5.60
2018-01-17T10:28:36.179Z,5.70
2018-01-17T10:31:04.047Z,6.00
2018-01-17T10:33:31.913Z,7.00
2018-01-17T10:35:59.780Z,7.80
2018-01-17T10:38:27.648Z,7.80
2018-01-17T10:40:55.515Z,8.00
2018-01-17T10:43:23.383Z,8.20
2018-01-17T10:45:51.251Z,9.30
2018-01-17T10:48:19.050Z,9.60
2018-01-17T10:50:47.700Z,12.90
2018-01-17T10:53:15.569Z,12.90
2018-01-17T10:55:43.437Z,14.80
2018-01-17T10:58:11.303Z,15.90
2018-01-17T11:00:46.850Z,16.80
2018-01-17T11:03:14.717Z,15.30
2018-01-17T11:08:17.211Z,11.80
2018-01-17T11:10:45.079Z,11.80
2018-01-17T11:13:12.945Z,12.90
2018-01-17T11:15:40.813Z,13.80
2018-01-17T11:18:08.681Z,13.00
2018-01-17T11:20:36.548Z,12.90
2018-01-17T11:23:04.414Z,12.90
2018-01-17T11:25:32.283Z,11.40
2018-01-17T11:28:00.149Z,10.40
2018-01-17T11:30:28.018Z,9.60
2018-01-17T11:32:55.885Z,9.00
2018-01-17T11:35:23.751Z,8.30
2018-01-17T11:37:51.618Z,7.90
2018-01-17T11:40:19.487Z,7.40
2018-01-17T11:42:47.354Z,7.20
2018-01-17T11:45:15.220Z,7.00
2018-01-17T11:47:43.140Z,6.80
2018-01-17T11:50:11.776Z,6.60
2018-01-17T11:52:39.643Z,6.60
2018-01-17T11:55:07.509Z,6.90
2018-01-17T11:57:35.377Z,7.20
2018-01-17T12:00:03.244Z,7.30
2018-01-17T12:02:31.111Z,7.30
2018-01-17T12:04:58.979Z,7.30
2018-01-17T12:07:26.849Z,7.10
2018-01-17T12:09:54.645Z,6.90
2018-01-17T12:12:23.194Z,7.00
2018-01-17T12:14:51.066Z,6.90
2018-01-17T12:17:18.866Z,7.00
2018-01-17T12:19:47.513Z,7.10
2018-01-17T12:22:15.381Z,7.00
2018-01-17T12:24:43.249Z,6.80
2018-01-17T12:27:11.116Z,6.60
2018-01-17T12:29:38.983Z,6.50
2018-01-17T12:32:06.850Z,6.30
2018-01-17T12:34:34.719Z,6.00
2018-01-17T12:37:02.585Z,5.80
2018-01-17T12:39:30.452Z,5.70
2018-01-17T12:41:58.320Z,5.70
2018-01-17T12:44:26.187Z,5.80
2018-01-17T12:46:54.054Z,5.90
2018-01-17T12:49:21.922Z,6.10
2018-01-17T12:51:49.790Z,6.40
2018-01-17T12:54:17.656Z,7.20
2018-01-17T12:56:45.525Z,7.60
2018-01-17T12:59:13.391Z,8.70
2018-01-17T13:01:41.261Z,9.20
2018-01-17T13:04:09.125Z,9.50
2018-01-17T13:06:36.992Z,10.30
2018-01-17T13:09:04.860Z,10.60
2018-01-17T13:11:32.726Z,9.80
2018-01-17T13:14:00.594Z,9.10
2018-01-17T13:16:28.462Z,8.70
2018-01-17T13:18:56.328Z,9.40
2018-01-17T13:21:24.197Z,10.50
2018-01-17T13:23:52.064Z,10.90
2018-01-17T13:26:19.932Z,11.20
2018-01-17T13:28:47.798Z,10.90
2018-01-17T13:31:15.666Z,10.70
2018-01-17T13:33:43.536Z,10.30
2018-01-17T13:36:11.401Z,10.10
2018-01-17T13:38:39.272Z,10.20
2018-01-17T13:41:07.135Z,9.50
2018-01-17T13:43:35.009Z,8.70
2018-01-17T13:46:02.869Z,8.90
2018-01-17T13:48:30.737Z,9.00
2018-01-17T13:50:58.606Z,8.50
2018-01-17T13:53:26.472Z,8.30
2018-01-17T13:55:54.339Z,8.60
2018-01-17T13:58:22.206Z,8.70
2018-01-17T14:00:50.073Z,8.30
2018-01-17T14:03:17.942Z,7.80
2018-01-17T14:05:45.911Z,7.50
2018-01-17T14:08:13.780Z,7.20
2018-01-17T14:10:41.645Z,6.90
2018-01-17T14:13:09.513Z,6.60
2018-01-17T14:15:37.379Z,6.50
2018-01-17T14:18:05.247Z,6.40
2018-01-17T14:20:33.115Z,6.30
2018-01-17T14:23:00.982Z,6.20
2018-01-17T14:25:28.850Z,6.20
2018-01-17T14:27:56.766Z,6.20
2018-01-17T14:30:25.403Z,6.20
2018-01-17T14:32:53.273Z,6.20
2018-01-17T14:35:21.137Z,6.10
2018-01-17T14:37:49.005Z,6.20
2018-01-17T14:40:16.875Z,6.10
2018-01-17T14:42:44.740Z,6.10
2018-01-17T14:45:12.608Z,6.10
2018-01-17T14:47:40.475Z,6.10
2018-01-17T14:50:08.342Z,6.00
2018-01-17T14:52:36.208Z,5.90
2018-01-17T14:55:04.076Z,5.80
2018-01-17T14:57:31.944Z,5.70
2018-01-17T14:59:59.811Z,5.50
2018-01-17T15:02:27.693Z,5.50
2018-01-17T15:04:55.547Z,5.50
2018-01-17T15:07:23.412Z,5.60
2018-01-17T15:09:51.280Z,5.70
2018-01-17T15:12:19.078Z,5.60
2018-01-17T15:14:47.630Z,5.40
2018-01-17T15:17:15.522Z,5.40
2018-01-17T15:19:43.365Z,5.40
2018-01-17T15:22:11.231Z,5.40
2018-01-17T15:24:39.099Z,5.40
2018-01-17T15:27:06.966Z,5.30
2018-01-17T15:29:34.833Z,5.30
2018-01-17T15:32:02.701Z,5.30
2018-01-17T15:34:30.670Z,5.30
2018-01-17T15:36:58.538Z,5.30
2018-01-17T15:39:26.405Z,5.30
2018-01-17T15:41:54.271Z,5.40
2018-01-17T15:44:22.140Z,5.40
2018-01-17T15:46:50.007Z,5.40
2018-01-17T15:49:17.874Z,5.40
2018-01-17T15:51:45.742Z,5.50
2018-01-17T15:54:13.608Z,5.50
2018-01-17T15:56:41.476Z,5.50
2018-01-17T15:59:09.344Z,5.50
2018-01-17T16:01:37.211Z,5.40
2018-01-17T16:04:05.077Z,5.40
2018-01-17T16:06:32.946Z,5.40
2018-01-17T16:09:00.813Z,5.30
2018-01-17T16:11:28.680Z,5.20
2018-01-17T16:13:56.547Z,5.20
2018-01-17T16:16:24.416Z,5.20
2018-01-17T16:18:52.180Z,5.20
2018-01-17T16:21:20.047Z,5.10
2018-01-17T16:23:47.915Z,5.10
2018-01-17T16:26:15.782Z,5.10
2018-01-17T16:28:43.956Z,5.10
2018-01-17T16:31:11.823Z,5.10
2018-01-17T16:33:39.704Z,5.20
2018-01-17T16:36:07.558Z,5.20
2018-01-17T16:38:35.425Z,5.20
2018-01-17T16:41:03.292Z,5.20
2018-01-17T16:43:31.160Z,5.30
2018-01-17T16:45:59.027Z,5.20
2018-01-17T16:48:26.894Z,5.30
2018-01-17T16:50:54.762Z,5.30
2018-01-17T16:53:22.629Z,5.30
2018-01-17T16:55:50.537Z,5.30
2018-01-17T16:58:19.109Z,5.30
2018-01-17T17:00:46.948Z,5.30
2018-01-17T17:03:14.817Z,5.30
2018-01-17T17:05:42.785Z,5.30
2018-01-17T17:08:10.657Z,5.30
2018-01-17T17:10:38.523Z,5.20
2018-01-17T17:13:06.387Z,5.20
2018-01-17T17:15:34.254Z,5.20
2018-01-17T17:18:02.123Z,5.10
2018-01-17T17:20:29.989Z,5.10
2018-01-17T17:22:57.790Z,5.10
2018-01-17T17:25:26.441Z,5.00
2018-01-17T17:27:54.308Z,5.00
2018-01-17T17:30:22.175Z,4.90
2018-01-17T17:32:50.042Z,4.90
2018-01-17T17:35:17.909Z,4.90
2018-01-17T17:37:45.776Z,4.80
2018-01-17T17:40:13.644Z,4.80
2018-01-17T17:42:41.512Z,4.80
2018-01-17T17:45:09.385Z,4.80
2018-01-17T17:47:37.256Z,4.70
2018-01-17T17:50:05.478Z,4.70
2018-01-17T17:52:33.289Z,4.70
2018-01-17T17:55:01.259Z,4.70
2018-01-17T17:57:29.205Z,4.70
2018-01-17T17:59:57.287Z,4.60
2018-01-17T18:02:25.364Z,4.60
2018-01-17T18:04:53.443Z,4.60
2018-01-17T18:07:21.413Z,4.60
2018-01-17T18:09:50.100Z,4.60
2018-01-17T18:12:17.968Z,4.60
2018-01-17T18:14:45.835Z,4.70
2018-01-17T18:17:13.705Z,4.70
2018-01-17T18:19:41.569Z,4.70
2018-01-17T18:22:09.437Z,4.70
2018-01-17T18:24:37.304Z,4.80
2018-01-17T18:27:05.171Z,4.80
2018-01-17T18:29:33.038Z,4.80
2018-01-17T18:32:00.906Z,4.80
2018-01-17T18:34:28.773Z,4.80
2018-01-17T18:36:56.640Z,4.80
2018-01-17T18:39:24.510Z,4.70
2018-01-17T18:41:52.375Z,4.70
2018-01-17T18:44:20.244Z,4.70
2018-01-17T18:46:48.110Z,4.70
2018-01-17T18:49:15.977Z,4.60
2018-01-17T18:51:43.844Z,4.50
2018-01-17T18:54:11.711Z,4.50
2018-01-17T18:56:39.579Z,4.40
2018-01-17T18:59:07.446Z,4.40
2018-01-17T19:01:35.313Z,4.30
2018-01-17T19:04:03.181Z,4.30
2018-01-17T19:09:05.265Z,4.20
2018-01-17T19:11:33.131Z,4.20
2018-01-17T19:14:00.998Z,4.20
2018-01-17T19:16:28.866Z,4.10
2018-01-17T19:18:56.733Z,4.10
2018-01-17T19:21:24.601Z,4.10
2018-01-17T19:23:52.468Z,4.00
2018-01-17T19:26:20.336Z,4.00
2018-01-17T19:28:48.203Z,4.00
2018-01-17T19:31:16.070Z,4.00
2018-01-17T19:33:43.937Z,4.00
2018-01-17T19:36:11.805Z,4.00
2018-01-17T19:38:39.672Z,3.90
2018-01-17T19:41:07.541Z,3.90
2018-01-17T19:43:35.407Z,3.70
2018-01-17T19:46:03.274Z,3.70
2018-01-17T19:48:31.142Z,3.60
2018-01-17T19:50:59.009Z,3.60
2018-01-17T19:53:26.876Z,3.50
2018-01-17T19:55:54.743Z,3.50
2018-01-17T19:58:22.610Z,3.40
2018-01-17T20:00:50.478Z,3.40
2018-01-17T20:03:18.279Z,3.40
2018-01-17T20:05:47.032Z,3.40
2018-01-17T20:08:14.898Z,3.40
2018-01-17T20:10:42.766Z,3.40
2018-01-17T20:13:10.842Z,3.40
2018-01-17T20:15:38.808Z,3.40
2018-01-17T20:18:07.895Z,3.40
2018-01-17T20:20:39.804Z,3.30
2018-01-17T20:23:08.555Z,3.40
2018-01-17T20:25:36.422Z,3.30
2018-01-17T20:28:04.288Z,3.30
2018-01-17T20:30:32.156Z,3.30
2018-01-17T20:33:00.024Z,3.20
2018-01-17T20:35:27.890Z,3.20
2018-01-17T20:37:55.758Z,3.20
2018-01-17T20:40:23.628Z,3.30
2018-01-17T20:42:51.493Z,3.30
2018-01-17T20:45:19.363Z,3.30
2018-01-17T20:47:47.227Z,3.40
2018-01-17T20:50:15.095Z,3.40
2018-01-17T20:52:42.962Z,3.50
2018-01-17T20:55:10.830Z,3.50
2018-01-17T20:57:38.697Z,3.60
2018-01-17T21:00:06.563Z,3.70
2018-01-17T21:02:34.431Z,3.70
2018-01-17T21:05:02.299Z,3.70
2018-01-17T21:07:30.165Z,3.70
2018-01-17T21:09:58.033Z,3.70
2018-01-17T21:12:25.900Z,3.70
2018-01-17T21:14:53.770Z,3.70
2018-01-17T21:17:21.636Z,3.70
2018-01-17T21:19:49.503Z,3.70
2018-01-17T21:22:17.370Z,3.70
2018-01-17T21:24:45.339Z,3.70
2018-01-17T21:27:13.207Z,3.70
2018-01-17T21:29:41.075Z,3.70
2018-01-17T21:32:08.941Z,3.70
2018-01-17T21:34:36.808Z,3.80
2018-01-17T21:37:04.676Z,3.80
2018-01-17T21:39:32.748Z,3.90
2018-01-17T21:42:00.616Z,3.80
2018-01-17T21:44:34.309Z,3.80
2018-01-17T21:47:02.494Z,3.80
2018-01-17T21:49:30.382Z,3.80
2018-01-17T21:51:58.229Z,3.80
2018-01-17T21:54:26.096Z,3.70
2018-01-17T21:56:53.964Z,3.60
2018-01-17T21:59:21.830Z,3.60
2018-01-17T22:01:49.822Z,3.60
2018-01-17T22:04:18.692Z,3.50
2018-01-17T22:06:46.560Z,3.50
2018-01-17T22:09:14.429Z,3.50
2018-01-17T22:11:42.296Z,3.40
2018-01-17T22:14:10.162Z,3.50
2018-01-17T22:16:38.028Z,3.50
2018-01-17T22:19:05.933Z,3.50
2018-01-17T22:21:34.584Z,3.50
2018-01-17T22:24:02.501Z,3.50
2018-01-17T22:26:31.069Z,3.60
2018-01-17T22:28:59.722Z,3.60
2018-01-17T22:31:27.521Z,3.60
2018-01-17T22:33:56.172Z,3.70
2018-01-17T22:36:24.041Z,3.70
2018-01-17T22:38:51.907Z,3.70
2018-01-17T22:41:19.776Z,3.80
2018-01-17T22:43:47.645Z,3.90
2018-01-17T22:46:15.507Z,3.90
2018-01-17T22:48:43.375Z,3.90
2018-01-17T22:51:11.243Z,4.00
2018-01-17T22:53:39.110Z,4.00
2018-01-17T22:56:06.981Z,4.00
2018-01-17T22:58:34.844Z,4.00
2018-01-17T23:01:02.712Z,4.00
2018-01-17T23:03:30.579Z,4.00
2018-01-17T23:05:58.446Z,4.00
2018-01-17T23:08:26.317Z,4.00
2018-01-17T23:10:54.182Z,4.00
2018-01-17T23:13:22.050Z,3.90
2018-01-17T23:15:49.916Z,3.80
2018-01-17T23:18:17.714Z,3.80
2018-01-17T23:20:45.548Z,3.80
2018-01-17T23:23:13.416Z,3.80
2018-01-17T23:25:41.296Z,3.80
2018-01-17T23:28:09.867Z,3.90
2018-01-17T23:30:37.663Z,3.90
2018-01-17T23:33:05.499Z,4.00
2018-01-17T23:35:33.366Z,4.00
2018-01-17T23:38:01.234Z,4.00
2018-01-17T23:40:29.102Z,4.00
2018-01-17T23:42:56.968Z,4.00
2018-01-17T23:45:24.836Z,4.00
2018-01-17T23:47:52.703Z,4.00
2018-01-17T23:50:20.573Z,4.00
2018-01-17T23:52:48.438Z,3.90
2018-01-17T23:55:16.306Z,3.90
2018-01-17T23:57:44.174Z,3.90
